createdAt,value
2022-09-22T06:14:26.280Z,6.40
2022-09-22T06:17:13.248Z,5.67
2022-09-22T06:20:00.496Z,5.70
2022-09-22T06:22:48.535Z,6.27
2022-09-22T06:25:35.506Z,6.30
2022-09-22T06:28:22.592Z,5.77
2022-09-22T06:31:11.308Z,6.30
2022-09-22T06:33:58.261Z,5.77
2022-09-22T06:36:45.163Z,6.40
2022-09-22T06:39:32.447Z,5.83
2022-09-22T06:42:19.322Z,6.43
2022-09-22T06:45:07.597Z,6.43
2022-09-22T06:47:58.408Z,6.80
2022-09-22T06:50:48.466Z,7.53
2022-09-22T06:53:35.317Z,6.87
2022-09-22T06:56:24.181Z,8.07
2022-09-22T06:59:12.758Z,6.53
2022-09-22T07:01:59.654Z,7.20
2022-09-22T07:04:47.447Z,7.03
2022-09-22T07:07:34.349Z,7.43
2022-09-22T07:10:21.190Z,7.00
2022-09-22T07:13:09.874Z,6.97
2022-09-22T07:15:59.822Z,6.87
2022-09-22T07:18:48.675Z,6.87
2022-09-22T07:21:37.385Z,7.03
2022-09-22T07:24:26.979Z,6.03
2022-09-22T07:27:19.608Z,6.80
2022-09-22T07:30:09.416Z,6.27
2022-09-22T07:32:56.519Z,5.60
2022-09-22T07:35:43.355Z,6.30
2022-09-22T07:38:32.851Z,6.00
2022-09-22T07:41:21.292Z,5.90
2022-09-22T07:44:27.826Z,5.97
2022-09-22T07:47:14.723Z,5.63
2022-09-22T07:50:03.704Z,5.43
2022-09-22T07:52:51.620Z,5.20
2022-09-22T07:55:39.635Z,5.27
2022-09-22T07:58:26.491Z,5.70
2022-09-22T08:01:14.418Z,5.57
2022-09-22T08:04:01.675Z,5.60
2022-09-22T08:06:51.539Z,5.13
2022-09-22T08:09:38.420Z,5.40
2022-09-22T08:12:25.888Z,5.27
2022-09-22T08:15:12.758Z,5.30
2022-09-22T08:18:01.646Z,4.90
2022-09-22T08:20:48.512Z,4.87
2022-09-22T08:23:36.648Z,4.60
2022-09-22T08:26:23.479Z,4.90
2022-09-22T08:29:11.096Z,4.70
2022-09-22T08:31:57.931Z,4.97
2022-09-22T08:34:44.833Z,5.07
2022-09-22T08:37:31.737Z,5.23
2022-09-22T08:40:22.727Z,5.17
2022-09-22T08:43:12.081Z,4.83
2022-09-22T08:46:00.660Z,4.40
2022-09-22T08:49:07.006Z,4.77
2022-09-22T08:51:57.873Z,4.43
2022-09-22T08:54:45.421Z,4.23
2022-09-22T08:57:58.698Z,4.50
2022-09-22T09:00:54.605Z,4.50
2022-09-22T09:03:57.195Z,3.90
2022-09-22T09:06:52.460Z,4.23
2022-09-22T09:09:55.300Z,4.47
2022-09-22T09:12:56.390Z,4.00
2022-09-22T09:15:56.736Z,3.85
2022-09-22T09:18:55.456Z,3.70
2022-09-22T09:21:48.316Z,3.72
2022-09-22T09:27:50.895Z,4.13
2022-09-22T09:30:42.223Z,3.97
2022-09-22T09:33:32.876Z,3.72
2022-09-22T09:36:23.144Z,3.92
2022-09-22T09:39:13.424Z,3.10
2022-09-22T09:42:01.764Z,3.13
2022-09-22T09:44:52.565Z,3.50
2022-09-22T09:47:59.086Z,2.97
2022-09-22T09:50:46.197Z,3.47
2022-09-22T09:53:41.599Z,3.10
2022-09-22T09:56:29.826Z,3.28
2022-09-22T09:59:43.291Z,2.92
2022-09-22T10:02:32.854Z,2.63
2022-09-22T10:05:24.986Z,2.83
2022-09-22T10:08:17.266Z,2.80
2022-09-22T10:11:05.165Z,2.85
2022-09-22T10:13:56.292Z,3.00
2022-09-22T10:16:51.244Z,3.35
2022-09-22T10:19:38.242Z,3.20
2022-09-22T10:22:26.873Z,2.90
2022-09-22T10:25:23.186Z,2.60
2022-09-22T10:28:15.141Z,3.63
2022-09-22T10:31:02.731Z,3.22
2022-09-22T10:33:57.033Z,3.17
2022-09-22T10:36:45.407Z,3.10
2022-09-22T10:39:38.902Z,3.40
2022-09-22T10:42:32.578Z,3.40
2022-09-22T10:45:25.287Z,3.50
2022-09-22T10:48:22.264Z,2.92
2022-09-22T10:51:15.422Z,3.38
2022-09-22T10:54:22.205Z,3.28
2022-09-22T10:57:20.702Z,2.67
2022-09-22T11:00:13.305Z,2.60
2022-09-22T11:03:32.545Z,2.47
2022-09-22T11:06:59.455Z,2.50
2022-09-22T11:10:14.229Z,2.80
2022-09-22T11:13:07.734Z,2.53
2022-09-22T11:16:24.276Z,2.70
2022-09-22T11:19:38.188Z,2.80
2022-09-22T11:22:47.985Z,2.28
2022-09-22T11:25:53.489Z,2.00
2022-09-22T11:28:57.273Z,2.60
2022-09-22T11:32:02.287Z,2.10
2022-09-22T11:35:01.911Z,2.92
2022-09-22T11:38:00.938Z,2.70
2022-09-22T11:41:01.307Z,2.45
2022-09-22T11:44:05.035Z,2.05
2022-09-22T11:47:12.939Z,2.00
2022-09-22T11:50:19.596Z,1.98
2022-09-22T11:53:30.157Z,1.70
2022-09-22T11:56:30.909Z,1.38
2022-09-22T11:59:29.114Z,1.83
2022-09-22T12:02:24.621Z,1.88
2022-09-22T12:05:16.434Z,1.70
2022-09-22T12:08:07.861Z,1.90
2022-09-22T12:10:55.788Z,2.25
2022-09-22T12:13:45.376Z,2.42
2022-09-22T12:16:40.845Z,2.42
2022-09-22T12:19:34.533Z,2.20
2022-09-22T12:22:29.121Z,1.83
2022-09-22T12:25:48.776Z,2.10
2022-09-22T12:28:40.708Z,1.80
2022-09-22T12:31:34.855Z,1.90
2022-09-22T12:34:24.042Z,1.83
2022-09-22T12:37:13.231Z,1.50
2022-09-22T12:40:21.640Z,2.00
2022-09-22T12:43:14.519Z,2.03
2022-09-22T12:46:05.098Z,2.25
2022-09-22T12:48:52.295Z,1.90
2022-09-22T12:51:39.159Z,1.75
2022-09-22T12:54:38.778Z,1.90
2022-09-22T12:57:29.863Z,2.00
2022-09-22T13:00:30.611Z,2.10
2022-09-22T13:03:39.648Z,1.73
2022-09-22T13:06:55.825Z,1.60
2022-09-22T13:09:42.709Z,1.80
2022-09-22T13:12:30.213Z,1.63
2022-09-22T13:15:19.537Z,1.50
2022-09-22T13:18:27.701Z,1.80
2022-09-22T13:21:25.099Z,1.75
2022-09-22T13:24:19.494Z,1.58
2022-09-22T13:27:13.042Z,1.80
2022-09-22T13:30:00.570Z,1.35
2022-09-22T13:32:48.928Z,1.42
2022-09-22T13:35:40.074Z,1.23
2022-09-22T13:38:28.158Z,1.08
2022-09-22T13:41:19.149Z,1.40
2022-09-22T13:44:12.022Z,1.00
2022-09-22T13:47:02.246Z,1.30
2022-09-22T13:49:54.158Z,1.48
2022-09-22T13:52:42.182Z,1.30
2022-09-22T13:55:32.755Z,1.50
2022-09-22T13:58:34.098Z,1.33
2022-09-22T14:01:24.629Z,1.20
2022-09-22T14:04:21.394Z,1.45
2022-09-22T14:07:09.866Z,1.40
2022-09-22T14:09:58.646Z,1.10
2022-09-22T14:12:46.688Z,1.23
2022-09-22T14:15:42.489Z,1.40
2022-09-22T14:18:30.089Z,1.20
2022-09-22T14:21:17.461Z,1.75
2022-09-22T14:24:05.933Z,1.17
2022-09-22T14:26:57.161Z,1.45
2022-09-22T14:29:49.539Z,1.60
2022-09-22T14:32:38.877Z,1.48
2022-09-22T14:35:28.418Z,1.50
2022-09-22T14:38:25.675Z,1.75
2022-09-22T14:41:21.665Z,1.60
2022-09-22T14:44:43.649Z,1.75
2022-09-22T14:47:38.251Z,1.70
2022-09-22T14:50:37.960Z,1.50
2022-09-22T14:53:28.711Z,1.70
2022-09-22T14:56:26.517Z,1.70
2022-09-22T14:59:31.315Z,1.80
2022-09-22T15:02:34.776Z,1.90
2022-09-22T15:05:28.927Z,1.65
2022-09-22T15:08:26.938Z,1.67
2022-09-22T15:11:15.675Z,1.58
2022-09-22T15:14:23.427Z,1.58
2022-09-22T15:17:55.721Z,1.80
2022-09-22T15:20:45.868Z,1.70
2022-09-22T15:23:40.957Z,1.85
2022-09-22T15:26:30.319Z,1.63
2022-09-22T15:29:17.132Z,2.00
2022-09-22T15:32:05.977Z,2.10
2022-09-22T15:34:54.242Z,1.80
2022-09-22T15:37:41.377Z,1.75
2022-09-22T15:40:28.408Z,1.88
2022-09-22T15:43:20.767Z,1.88
2022-09-22T15:46:22.417Z,2.33
2022-09-22T15:49:12.371Z,1.90
2022-09-22T15:52:03.812Z,1.90
2022-09-22T15:54:50.714Z,1.88
2022-09-22T15:57:37.975Z,1.88
2022-09-22T16:00:27.686Z,1.90
2022-09-22T16:03:19.071Z,2.10
2022-09-22T16:06:10.658Z,1.95
2022-09-22T16:08:58.138Z,2.08
2022-09-22T16:11:45.252Z,2.10
2022-09-22T16:14:32.061Z,1.83
2022-09-22T16:17:18.923Z,1.92
2022-09-22T16:20:06.612Z,1.95
2022-09-22T16:22:53.442Z,2.20
2022-09-22T16:25:41.800Z,2.58
2022-09-22T16:28:28.638Z,3.70
2022-09-22T16:31:15.843Z,2.90
2022-09-22T16:34:04.550Z,2.80
2022-09-22T16:36:51.720Z,3.10
2022-09-22T16:39:38.552Z,2.55
2022-09-22T16:42:26.039Z,3.85
2022-09-22T16:45:12.900Z,3.13
2022-09-22T16:47:59.867Z,3.17
2022-09-22T16:50:46.739Z,3.67
2022-09-22T16:53:33.586Z,2.20
2022-09-22T16:56:22.749Z,1.63
2022-09-22T16:59:12.442Z,1.88
2022-09-22T17:01:59.395Z,2.30
2022-09-22T17:04:46.276Z,1.65
2022-09-22T17:07:33.091Z,1.90
2022-09-22T17:10:20.375Z,2.00
2022-09-22T17:13:07.596Z,2.00
2022-09-22T17:16:07.211Z,1.70
2022-09-22T17:18:55.956Z,1.90
2022-09-22T17:21:44.931Z,2.03
2022-09-22T17:24:31.763Z,2.00
2022-09-22T17:27:18.584Z,2.17
2022-09-22T17:30:06.940Z,2.00
2022-09-22T17:32:54.440Z,2.30
2022-09-22T17:35:41.294Z,2.10
2022-09-22T17:38:30.639Z,2.13
2022-09-22T17:41:19.281Z,2.20
2022-09-22T17:44:06.249Z,2.30
2022-09-22T17:47:11.329Z,2.50
2022-09-22T17:50:17.068Z,2.40
2022-09-22T17:53:22.084Z,2.33
2022-09-22T17:56:12.926Z,2.10
2022-09-22T17:59:00.004Z,2.87
2022-09-22T18:01:47.031Z,2.97
2022-09-22T18:04:35.741Z,3.13
2022-09-22T18:07:25.432Z,3.30
2022-09-22T18:10:14.577Z,2.80
2022-09-22T18:13:02.256Z,3.53
2022-09-22T18:15:50.063Z,3.70
2022-09-22T18:18:40.778Z,4.10
2022-09-22T18:21:27.782Z,4.00
2022-09-22T18:24:17.858Z,3.57
2022-09-22T18:27:05.536Z,4.40
2022-09-22T18:29:57.564Z,4.23
2022-09-22T18:32:44.395Z,4.03
2022-09-22T18:35:31.391Z,4.10
2022-09-22T18:38:18.939Z,4.13
2022-09-22T18:41:06.435Z,4.50
2022-09-22T18:43:54.266Z,5.10
2022-09-22T18:46:46.153Z,4.57
2022-09-22T18:49:33.299Z,4.33
2022-09-22T18:52:23.026Z,4.57
2022-09-22T18:55:16.434Z,4.30
2022-09-22T18:58:03.927Z,4.57
2022-09-22T19:00:50.948Z,4.03
2022-09-22T19:03:37.888Z,5.20
2022-09-22T19:06:24.815Z,4.70
2022-09-22T19:09:11.661Z,5.57
2022-09-22T19:11:59.411Z,6.13
2022-09-22T19:14:53.198Z,6.00
2022-09-22T19:17:43.074Z,5.77
2022-09-22T19:20:30.298Z,5.53
2022-09-22T19:23:17.562Z,5.57
2022-09-22T19:26:04.959Z,5.37
2022-09-22T19:28:51.814Z,4.93
2022-09-22T19:31:41.186Z,5.20
2022-09-22T19:34:29.427Z,5.40
2022-09-22T19:37:16.267Z,4.63
2022-09-22T19:40:03.816Z,5.30
2022-09-22T19:42:52.055Z,5.20
2022-09-22T19:45:38.971Z,5.77
2022-09-22T19:48:26.484Z,5.37
2022-09-22T19:51:13.396Z,4.83
2022-09-22T19:54:00.248Z,5.33
2022-09-22T19:56:47.706Z,5.60
2022-09-22T19:59:34.550Z,5.77
2022-09-22T20:02:21.587Z,5.80
2022-09-22T20:05:19.818Z,5.17
2022-09-22T20:08:14.694Z,4.80
2022-09-22T20:11:25.038Z,5.13
2022-09-22T20:14:20.038Z,4.67
2022-09-22T20:17:08.240Z,4.40
2022-09-22T20:19:55.064Z,4.77
2022-09-22T20:22:44.924Z,4.70
2022-09-22T20:25:32.476Z,4.90
2022-09-22T20:28:20.360Z,4.80
2022-09-22T20:31:10.826Z,5.33
2022-09-22T20:33:57.789Z,4.57
2022-09-22T20:36:44.702Z,4.97
2022-09-22T20:39:32.181Z,4.10
2022-09-22T20:42:19.193Z,4.50
2022-09-22T20:45:09.468Z,4.23
2022-09-22T20:47:56.352Z,5.03
2022-09-22T20:50:43.241Z,5.00
2022-09-22T20:53:32.141Z,6.00
2022-09-22T20:56:19.618Z,5.80
2022-09-22T20:59:06.469Z,5.77
2022-09-22T21:01:53.329Z,5.50
2022-09-22T21:04:40.599Z,5.03
2022-09-22T21:07:27.459Z,4.60
2022-09-22T21:10:32.433Z,4.40
2022-09-22T21:13:19.893Z,4.10
2022-09-22T21:16:07.669Z,4.20
2022-09-22T21:18:55.118Z,3.50
2022-09-22T21:21:41.954Z,3.30
2022-09-22T21:24:30.363Z,3.23
2022-09-22T21:27:17.223Z,3.57
2022-09-22T21:30:07.280Z,3.50
2022-09-22T21:32:54.642Z,3.97
2022-09-22T21:35:41.503Z,3.57
2022-09-22T21:38:29.359Z,3.53
2022-09-22T21:41:17.966Z,3.23
2022-09-22T21:44:05.154Z,3.40
2022-09-22T21:46:53.348Z,3.50
2022-09-22T21:49:40.159Z,3.67
2022-09-22T21:52:27.390Z,3.47
2022-09-22T21:55:14.363Z,3.10
2022-09-22T21:58:01.227Z,3.37
2022-09-22T22:00:52.002Z,3.60
2022-09-22T22:03:41.429Z,3.97
2022-09-22T22:06:30.325Z,3.90
2022-09-22T22:09:19.155Z,4.50
2022-09-22T22:12:06.074Z,3.67
2022-09-22T22:14:52.907Z,4.03
2022-09-22T22:17:39.749Z,3.57
2022-09-22T22:20:27.743Z,3.70
2022-09-22T22:23:14.587Z,3.70
2022-09-22T22:26:06.419Z,4.20
2022-09-22T22:28:53.283Z,3.87
2022-09-22T22:31:40.995Z,3.60
2022-09-22T22:34:28.057Z,3.33
2022-09-22T22:37:16.624Z,3.73
2022-09-22T22:40:04.298Z,3.83
2022-09-22T22:42:51.260Z,3.80
2022-09-22T22:45:40.984Z,3.93
2022-09-22T22:48:27.902Z,4.00
2022-09-22T22:51:16.900Z,3.93
2022-09-22T22:54:05.381Z,3.97
2022-09-22T22:56:52.215Z,4.00
2022-09-22T22:59:39.053Z,4.00
2022-09-22T23:02:29.068Z,4.23
2022-09-22T23:05:16.289Z,3.90
2022-09-22T23:08:03.177Z,4.20
2022-09-22T23:10:50.687Z,3.90
2022-09-22T23:13:39.518Z,4.10
2022-09-22T23:16:27.813Z,4.27
2022-09-22T23:19:16.262Z,4.47
2022-09-22T23:22:03.320Z,4.20
2022-09-22T23:24:50.172Z,4.30
2022-09-22T23:27:37.880Z,4.23
2022-09-22T23:30:24.811Z,4.23
2022-09-22T23:33:12.410Z,4.23
2022-09-22T23:36:00.633Z,4.53
2022-09-22T23:38:47.543Z,4.20
2022-09-22T23:41:36.512Z,4.17
2022-09-22T23:44:24.076Z,4.23
2022-09-22T23:47:15.522Z,4.23
2022-09-22T23:50:03.213Z,4.50
2022-09-22T23:52:50.395Z,4.40
2022-09-22T23:55:37.234Z,4.47
2022-09-22T23:58:24.175Z,4.57
